createdAt,value
2022-11-19T00:02:12.768Z,11.73
2022-11-19T00:04:39.319Z,9.15
2022-11-19T00:07:05.819Z,9.45
2022-11-19T00:09:32.390Z,8.50
2022-11-19T00:12:17.490Z,7.82
2022-11-19T00:14:43.945Z,8.73
2022-11-19T00:17:10.453Z,7.50
2022-11-19T00:19:36.962Z,7.97
2022-11-19T00:22:03.496Z,9.52
2022-11-19T00:24:29.996Z,10.02
2022-11-19T00:26:56.546Z,9.65
2022-11-19T00:29:23.577Z,9.13
2022-11-19T00:31:50.258Z,7.90
2022-11-19T00:34:16.714Z,8.32
2022-11-19T00:36:43.201Z,7.05
2022-11-19T00:39:09.648Z,8.00
2022-11-19T00:41:36.112Z,7.68
2022-11-19T00:44:02.614Z,7.70
2022-11-19T00:46:30.170Z,7.28
2022-11-19T00:48:57.977Z,8.23
2022-11-19T00:51:25.469Z,6.53
2022-11-19T00:53:52.342Z,7.72
2022-11-19T00:56:21.054Z,7.07
2022-11-19T00:58:47.924Z,8.60
2022-11-19T01:01:15.191Z,8.60
2022-11-19T01:03:42.609Z,8.82
2022-11-19T01:06:09.999Z,6.85
2022-11-19T01:08:36.791Z,8.15
2022-11-19T01:11:07.596Z,7.05
2022-11-19T01:13:37.385Z,7.68
2022-11-19T01:16:05.580Z,7.78
2022-11-19T01:18:32.115Z,7.25
2022-11-19T01:20:58.656Z,7.70
2022-11-19T01:23:25.178Z,7.65
2022-11-19T01:25:51.762Z,8.27
2022-11-19T01:28:18.251Z,9.57
2022-11-19T01:30:44.974Z,7.85
2022-11-19T01:33:11.899Z,7.00
2022-11-19T01:35:38.675Z,7.72
2022-11-19T01:38:05.753Z,7.68
2022-11-19T01:40:32.535Z,7.50
2022-11-19T01:42:58.982Z,8.25
2022-11-19T01:45:44.019Z,7.15
2022-11-19T01:48:16.612Z,7.78
2022-11-19T01:50:47.457Z,6.63
2022-11-19T01:53:14.605Z,7.55
2022-11-19T01:55:42.683Z,7.45
2022-11-19T01:58:09.344Z,7.15
2022-11-19T02:00:35.861Z,7.85
2022-11-19T02:03:02.788Z,7.93
2022-11-19T02:05:29.294Z,8.25
2022-11-19T02:07:57.525Z,6.65
2022-11-19T02:10:32.645Z,6.68
2022-11-19T02:13:22.064Z,7.63
2022-11-19T02:15:54.117Z,8.35
2022-11-19T02:18:20.549Z,7.45
2022-11-19T02:20:46.991Z,7.75
2022-11-19T02:23:22.336Z,6.70
2022-11-19T02:26:00.994Z,6.85
2022-11-19T02:28:30.468Z,7.63
2022-11-19T02:31:00.751Z,7.22
2022-11-19T02:33:36.492Z,8.00
2022-11-19T02:36:07.722Z,8.55
2022-11-19T02:38:39.210Z,6.85
2022-11-19T02:41:33.615Z,6.10
2022-11-19T02:44:34.791Z,6.25
2022-11-19T02:47:03.388Z,5.70
2022-11-19T02:49:31.610Z,6.15
2022-11-19T02:51:58.712Z,6.20
2022-11-19T02:54:26.220Z,6.25
2022-11-19T02:56:53.983Z,5.15
2022-11-19T02:59:45.245Z,5.88
2022-11-19T03:02:30.627Z,5.47
2022-11-19T03:04:57.138Z,6.38
2022-11-19T03:07:23.714Z,5.88
2022-11-19T03:09:57.684Z,6.18
2022-11-19T03:12:33.269Z,6.72
2022-11-19T03:15:24.386Z,7.03
2022-11-19T03:18:01.354Z,5.15
2022-11-19T03:20:39.069Z,5.90
2022-11-19T03:23:05.480Z,7.55
2022-11-19T03:25:35.466Z,6.95
2022-11-19T03:28:03.818Z,6.95
2022-11-19T03:30:31.119Z,7.15
2022-11-19T03:33:27.070Z,6.72
2022-11-19T03:35:55.992Z,5.72
2022-11-19T03:38:29.124Z,6.05
2022-11-19T03:40:56.770Z,6.50
2022-11-19T03:43:26.178Z,6.65
2022-11-19T03:45:53.917Z,6.03
2022-11-19T03:48:21.975Z,6.43
2022-11-19T03:50:51.436Z,6.65
2022-11-19T03:53:18.241Z,6.82
2022-11-19T03:55:47.148Z,5.90
2022-11-19T03:58:13.622Z,6.78
2022-11-19T04:00:40.080Z,5.07
2022-11-19T04:03:06.590Z,6.75
2022-11-19T04:05:33.046Z,5.35
2022-11-19T04:07:59.655Z,6.38
2022-11-19T04:10:26.131Z,6.43
2022-11-19T04:12:52.611Z,6.53
2022-11-19T04:15:19.064Z,5.22
2022-11-19T04:17:45.532Z,5.65
2022-11-19T04:20:12.022Z,5.93
2022-11-19T04:22:38.464Z,5.60
2022-11-19T04:25:05.175Z,5.10
2022-11-19T04:27:31.773Z,5.43
2022-11-19T04:29:58.220Z,6.20
2022-11-19T04:32:24.774Z,5.82
2022-11-19T04:34:51.219Z,6.28
2022-11-19T04:37:17.697Z,5.30
2022-11-19T04:39:44.187Z,5.63
2022-11-19T04:42:10.649Z,5.60
2022-11-19T04:44:37.190Z,5.32
2022-11-19T04:47:03.619Z,5.45
2022-11-19T04:49:30.089Z,7.30
2022-11-19T04:51:56.592Z,5.40
2022-11-19T04:54:23.074Z,4.63
2022-11-19T04:56:49.544Z,5.15
2022-11-19T04:59:15.972Z,5.55
2022-11-19T05:01:42.478Z,5.30
2022-11-19T05:04:09.728Z,5.53
2022-11-19T05:06:36.161Z,5.65
2022-11-19T05:09:02.650Z,6.20
2022-11-19T05:11:29.189Z,4.38
2022-11-19T05:13:55.729Z,4.68
2022-11-19T05:16:22.295Z,6.13
2022-11-19T05:18:48.752Z,5.88
2022-11-19T05:21:15.245Z,5.60
2022-11-19T05:23:41.691Z,5.25
2022-11-19T05:26:08.140Z,4.40
2022-11-19T05:28:39.104Z,3.95
2022-11-19T05:31:06.510Z,5.35
2022-11-19T05:33:34.445Z,4.30
2022-11-19T05:36:01.476Z,4.78
2022-11-19T05:38:27.935Z,3.78
2022-11-19T05:40:54.411Z,3.88
2022-11-19T05:43:20.890Z,4.43
2022-11-19T05:45:47.328Z,4.82
2022-11-19T05:48:13.836Z,5.60
2022-11-19T05:50:43.085Z,4.15
2022-11-19T05:53:09.933Z,4.85
2022-11-19T05:55:36.656Z,5.45
2022-11-19T05:58:03.362Z,4.60
2022-11-19T06:00:29.825Z,4.57
2022-11-19T06:02:56.475Z,4.88
2022-11-19T06:05:22.951Z,6.35
2022-11-19T06:07:49.572Z,4.88
2022-11-19T06:10:16.074Z,5.22
2022-11-19T06:12:45.746Z,5.78
2022-11-19T06:15:12.644Z,6.43
2022-11-19T06:17:39.165Z,7.35
2022-11-19T06:20:08.782Z,4.10
2022-11-19T06:22:35.550Z,5.22
2022-11-19T06:25:02.111Z,4.43
2022-11-19T06:27:28.567Z,5.70
2022-11-19T06:29:56.363Z,5.93
2022-11-19T06:32:23.587Z,4.65
2022-11-19T06:34:50.077Z,4.60
2022-11-19T06:37:16.553Z,4.15
2022-11-19T06:39:43.014Z,5.57
2022-11-19T06:42:28.142Z,5.45
2022-11-19T06:44:54.603Z,4.53
2022-11-19T06:47:21.117Z,5.05
2022-11-19T06:49:47.766Z,4.80
2022-11-19T06:52:14.224Z,5.13
2022-11-19T06:54:43.221Z,4.28
2022-11-19T06:57:10.023Z,4.32
2022-11-19T06:59:39.209Z,5.50
2022-11-19T07:02:06.104Z,5.72
2022-11-19T07:04:32.677Z,4.63
2022-11-19T07:06:59.317Z,4.68
2022-11-19T07:09:25.848Z,4.68
2022-11-19T07:11:52.378Z,5.20
2022-11-19T07:14:18.911Z,4.95
2022-11-19T07:16:45.363Z,4.05
2022-11-19T07:19:11.870Z,3.63
2022-11-19T07:21:38.436Z,5.05
2022-11-19T07:24:06.404Z,4.55
2022-11-19T07:26:33.285Z,4.07
2022-11-19T07:29:04.363Z,6.15
2022-11-19T07:31:31.289Z,5.32
2022-11-19T07:33:57.785Z,4.70
2022-11-19T07:36:24.350Z,5.65
2022-11-19T07:38:52.443Z,4.90
2022-11-19T07:41:38.162Z,4.38
2022-11-19T07:44:04.950Z,4.35
2022-11-19T07:46:31.473Z,4.00
2022-11-19T07:48:58.438Z,4.32
2022-11-19T07:51:25.302Z,4.50
2022-11-19T07:53:52.182Z,4.32
2022-11-19T07:56:18.772Z,4.25
2022-11-19T07:58:45.352Z,3.50
2022-11-19T08:01:13.228Z,3.17
2022-11-19T08:03:42.169Z,4.32
2022-11-19T08:06:08.798Z,3.95
2022-11-19T08:08:35.259Z,4.18
2022-11-19T08:11:05.742Z,3.88
2022-11-19T08:13:32.687Z,4.57
2022-11-19T08:15:59.922Z,4.78
2022-11-19T08:18:31.035Z,4.40
2022-11-19T08:21:03.566Z,5.50
2022-11-19T08:23:30.090Z,4.53
2022-11-19T08:25:56.556Z,5.50
2022-11-19T08:28:23.013Z,3.50
2022-11-19T08:30:49.493Z,4.80
2022-11-19T08:33:15.979Z,3.85
2022-11-19T08:35:43.166Z,5.32
2022-11-19T08:38:10.005Z,4.93
2022-11-19T08:40:36.835Z,4.95
2022-11-19T08:43:03.591Z,4.53
2022-11-19T08:45:37.497Z,4.28
2022-11-19T08:50:31.727Z,3.92
2022-11-19T08:52:59.360Z,4.38
2022-11-19T08:55:26.413Z,4.32
2022-11-19T08:57:53.022Z,4.60
2022-11-19T09:00:20.257Z,4.78
2022-11-19T09:02:47.283Z,4.57
2022-11-19T09:05:14.844Z,4.57
2022-11-19T09:07:41.551Z,4.82
2022-11-19T09:10:08.558Z,4.55
2022-11-19T09:12:35.157Z,5.07
2022-11-19T09:15:01.846Z,3.75
2022-11-19T09:17:28.315Z,3.88
2022-11-19T09:19:55.269Z,4.55
2022-11-19T09:22:21.755Z,3.58
2022-11-19T09:24:48.194Z,4.55
2022-11-19T09:27:14.985Z,3.63
2022-11-19T09:29:41.482Z,3.67
2022-11-19T09:32:07.956Z,3.95
2022-11-19T09:34:35.277Z,4.15
2022-11-19T09:37:01.822Z,4.50
2022-11-19T09:39:28.259Z,4.43
2022-11-19T09:42:00.909Z,3.65
2022-11-19T09:44:36.749Z,4.78
2022-11-19T09:47:12.272Z,3.80
2022-11-19T09:49:57.587Z,4.10
2022-11-19T09:52:25.233Z,3.55
2022-11-19T09:54:56.810Z,4.65
2022-11-19T09:57:32.409Z,4.43
2022-11-19T10:00:00.681Z,3.75
2022-11-19T10:02:27.435Z,3.33
2022-11-19T10:04:54.028Z,4.68
2022-11-19T10:07:29.437Z,2.97
2022-11-19T10:10:14.438Z,3.83
2022-11-19T10:12:47.156Z,4.28
2022-11-19T10:15:22.923Z,4.25
2022-11-19T10:17:55.622Z,3.65
2022-11-19T10:20:32.015Z,3.13
2022-11-19T10:23:10.652Z,4.13
2022-11-19T10:25:44.710Z,3.78
2022-11-19T10:28:13.954Z,3.30
2022-11-19T10:30:41.344Z,3.47
2022-11-19T10:33:12.187Z,2.60
2022-11-19T10:35:40.919Z,4.53
2022-11-19T10:38:11.986Z,5.07
2022-11-19T10:40:43.389Z,3.72
2022-11-19T10:43:28.885Z,3.20
2022-11-19T10:45:56.534Z,3.42
2022-11-19T10:48:35.942Z,3.83
2022-11-19T10:51:02.693Z,3.78
2022-11-19T10:53:36.370Z,3.35
2022-11-19T10:56:09.953Z,4.50
2022-11-19T10:58:42.498Z,3.63
2022-11-19T11:01:21.102Z,3.40
2022-11-19T11:03:54.822Z,3.97
2022-11-19T11:06:21.259Z,3.97
2022-11-19T11:08:49.528Z,3.50
2022-11-19T11:11:49.912Z,4.95
2022-11-19T11:14:39.769Z,4.18
2022-11-19T11:17:16.843Z,4.10
2022-11-19T11:19:43.524Z,3.30
2022-11-19T11:22:10.048Z,5.32
2022-11-19T11:24:38.043Z,3.95
2022-11-19T11:27:21.691Z,3.78
2022-11-19T11:29:48.469Z,6.07
2022-11-19T11:32:28.657Z,4.25
2022-11-19T11:34:55.185Z,3.72
2022-11-19T11:37:22.011Z,4.80
2022-11-19T11:39:55.165Z,3.92
2022-11-19T11:42:23.922Z,3.95
2022-11-19T11:44:52.305Z,4.57
2022-11-19T11:47:20.730Z,4.50
2022-11-19T11:49:49.581Z,4.40
2022-11-19T11:52:29.966Z,3.53
2022-11-19T11:54:57.626Z,3.47
2022-11-19T11:57:34.509Z,4.30
2022-11-19T12:00:23.977Z,3.65
2022-11-19T12:03:19.994Z,4.43
2022-11-19T12:05:46.606Z,4.60
2022-11-19T12:08:13.026Z,3.28
2022-11-19T12:10:48.869Z,4.40
2022-11-19T12:13:27.757Z,3.47
2022-11-19T12:16:08.301Z,3.88
2022-11-19T12:18:34.745Z,3.53
2022-11-19T12:21:12.188Z,4.47
2022-11-19T12:23:42.106Z,3.65
2022-11-19T12:26:17.565Z,3.80
2022-11-19T12:29:02.497Z,3.55
2022-11-19T12:31:44.189Z,3.22
2022-11-19T12:34:13.676Z,3.38
2022-11-19T12:36:49.349Z,3.72
2022-11-19T12:39:26.830Z,3.63
2022-11-19T12:41:56.490Z,2.95
2022-11-19T12:44:49.433Z,3.42
2022-11-19T12:47:33.566Z,3.80
2022-11-19T12:52:35.796Z,3.38
2022-11-19T12:55:17.405Z,3.58
2022-11-19T12:57:51.181Z,7.85
2022-11-19T13:00:22.086Z,7.40
2022-11-19T13:02:59.166Z,4.50
2022-11-19T13:05:44.480Z,5.75
2022-11-19T13:08:29.704Z,4.10
2022-11-19T13:10:59.343Z,4.18
2022-11-19T13:13:26.970Z,4.00
2022-11-19T13:15:56.413Z,3.90
2022-11-19T13:18:23.361Z,4.20
2022-11-19T13:20:53.394Z,4.68
2022-11-19T13:23:23.427Z,3.58
2022-11-19T13:26:00.811Z,4.25
2022-11-19T13:28:31.761Z,5.25
2022-11-19T13:31:01.156Z,4.63
2022-11-19T13:33:57.107Z,4.45
2022-11-19T13:36:44.049Z,3.97
2022-11-19T13:39:14.591Z,3.35
2022-11-19T13:42:08.874Z,4.10
2022-11-19T13:44:38.942Z,4.53
2022-11-19T13:47:09.957Z,4.82
2022-11-19T13:49:39.575Z,4.10
2022-11-19T13:52:08.459Z,3.22
2022-11-19T13:54:36.374Z,3.83
2022-11-19T13:57:03.860Z,5.03
2022-11-19T13:59:33.672Z,3.65
2022-11-19T14:02:03.149Z,5.10
2022-11-19T14:04:43.069Z,3.08
2022-11-19T14:07:31.155Z,4.85
2022-11-19T14:10:13.381Z,4.35
2022-11-19T14:12:39.861Z,3.35
2022-11-19T14:15:51.397Z,4.15
2022-11-19T14:18:36.134Z,4.40
2022-11-19T14:21:40.297Z,6.03
2022-11-19T14:24:45.256Z,6.07
2022-11-19T14:27:15.568Z,8.18
2022-11-19T14:29:45.314Z,10.25
2022-11-19T14:32:11.736Z,4.65
2022-11-19T14:34:57.145Z,8.52
2022-11-19T14:37:27.148Z,6.55
2022-11-19T14:40:13.989Z,4.78
2022-11-19T14:43:18.162Z,5.30
2022-11-19T14:46:03.215Z,5.68
2022-11-19T14:48:34.292Z,6.07
2022-11-19T14:51:05.065Z,4.60
2022-11-19T14:53:31.825Z,4.07
2022-11-19T14:55:59.798Z,4.57
2022-11-19T14:58:26.515Z,3.42
2022-11-19T15:01:05.656Z,3.15
2022-11-19T15:03:32.292Z,3.38
2022-11-19T15:06:01.939Z,4.13
2022-11-19T15:08:30.031Z,3.90
2022-11-19T15:11:05.896Z,4.00
2022-11-19T15:13:36.432Z,3.72
2022-11-19T15:16:09.162Z,3.58
2022-11-19T15:18:55.893Z,3.55
2022-11-19T15:21:40.683Z,4.32
2022-11-19T15:24:25.714Z,4.00
2022-11-19T15:27:18.643Z,4.20
2022-11-19T15:30:04.811Z,3.72
2022-11-19T15:32:49.585Z,4.45
2022-11-19T15:35:28.377Z,4.72
2022-11-19T15:37:59.444Z,4.10
2022-11-19T15:40:29.264Z,5.40
2022-11-19T15:43:04.524Z,4.15
2022-11-19T15:45:33.338Z,4.18
2022-11-19T15:48:09.758Z,3.78
2022-11-19T15:50:36.834Z,4.35
2022-11-19T15:53:14.392Z,5.28
2022-11-19T15:55:48.152Z,4.22
2022-11-19T16:00:45.876Z,3.92
2022-11-19T16:03:12.764Z,4.55
2022-11-19T16:05:39.808Z,3.58
2022-11-19T16:08:12.399Z,3.88
2022-11-19T16:10:43.038Z,3.42
2022-11-19T16:13:44.749Z,4.10
2022-11-19T16:16:47.135Z,3.47
2022-11-19T16:19:15.231Z,3.50
2022-11-19T16:21:42.830Z,3.00
2022-11-19T16:24:32.241Z,4.13
2022-11-19T16:26:59.120Z,3.45
2022-11-19T16:29:26.583Z,4.00
2022-11-19T16:32:02.878Z,3.92
2022-11-19T16:34:30.625Z,3.53
2022-11-19T16:36:57.515Z,4.22
2022-11-19T16:39:28.095Z,4.20
2022-11-19T16:42:20.018Z,3.10
2022-11-19T16:44:57.490Z,3.03
2022-11-19T16:47:27.078Z,4.07
2022-11-19T16:50:05.212Z,3.40
2022-11-19T16:52:31.682Z,3.58
2022-11-19T16:54:58.626Z,2.78
2022-11-19T16:57:26.235Z,3.42
2022-11-19T16:59:54.166Z,3.80
2022-11-19T17:02:22.382Z,4.20
2022-11-19T17:04:50.424Z,5.53
2022-11-19T17:07:35.893Z,5.43
2022-11-19T17:10:24.090Z,3.42
2022-11-19T17:12:50.939Z,4.95
2022-11-19T17:15:36.865Z,4.88
2022-11-19T17:18:22.269Z,4.13
2022-11-19T17:20:50.656Z,4.22
2022-11-19T17:23:17.094Z,4.38
2022-11-19T17:25:48.071Z,4.60
2022-11-19T17:28:20.436Z,5.13
2022-11-19T17:30:49.536Z,4.93
2022-11-19T17:33:17.175Z,4.57
2022-11-19T17:35:44.678Z,4.88
2022-11-19T17:38:12.681Z,5.25
2022-11-19T17:40:52.660Z,4.40
2022-11-19T17:43:51.150Z,4.82
2022-11-19T17:46:17.844Z,3.67
2022-11-19T17:48:44.963Z,4.22
2022-11-19T17:51:22.111Z,4.70
2022-11-19T17:53:51.164Z,4.10
2022-11-19T17:56:30.389Z,3.80
2022-11-19T17:58:57.006Z,4.20
2022-11-19T18:01:23.576Z,3.10
2022-11-19T18:03:50.180Z,3.88
2022-11-19T18:06:17.088Z,3.78
2022-11-19T18:08:43.594Z,3.72
2022-11-19T18:11:14.525Z,2.85
2022-11-19T18:13:42.310Z,3.90
2022-11-19T18:16:12.785Z,3.42
2022-11-19T18:18:39.331Z,3.15
2022-11-19T18:21:05.982Z,4.57
2022-11-19T18:23:32.448Z,4.18
2022-11-19T18:25:58.937Z,3.30
2022-11-19T18:28:25.382Z,5.00
2022-11-19T18:30:51.841Z,4.43
2022-11-19T18:33:19.273Z,3.97
2022-11-19T18:35:45.743Z,3.88
2022-11-19T18:38:12.277Z,3.45
2022-11-19T18:40:38.748Z,3.33
2022-11-19T18:43:23.920Z,3.15
2022-11-19T18:45:50.352Z,3.13
2022-11-19T18:48:16.834Z,3.88
2022-11-19T18:50:43.277Z,5.25
2022-11-19T18:53:11.519Z,3.85
2022-11-19T18:55:38.332Z,4.38
2022-11-19T18:58:05.042Z,3.75
2022-11-19T19:00:31.542Z,4.10
2022-11-19T19:02:57.994Z,3.85
2022-11-19T19:05:24.466Z,3.05
2022-11-19T19:07:50.999Z,4.00
2022-11-19T19:10:17.434Z,3.50
2022-11-19T19:12:43.909Z,5.10
2022-11-19T19:15:10.517Z,4.07
2022-11-19T19:17:36.997Z,5.13
2022-11-19T19:20:03.778Z,4.70
2022-11-19T19:22:30.299Z,3.70
2022-11-19T19:24:58.291Z,2.63
2022-11-19T19:27:25.056Z,3.45
2022-11-19T19:29:51.506Z,3.78
2022-11-19T19:32:17.996Z,4.07
2022-11-19T19:34:44.711Z,3.33
2022-11-19T19:37:11.181Z,3.45
2022-11-19T19:39:37.760Z,3.13
2022-11-19T19:42:04.281Z,3.72
2022-11-19T19:44:30.837Z,2.80
2022-11-19T19:46:57.462Z,4.10
2022-11-19T19:49:24.361Z,3.78
2022-11-19T19:51:51.136Z,4.47
2022-11-19T19:54:17.635Z,3.97
2022-11-19T19:56:44.111Z,4.00
2022-11-19T19:59:12.041Z,3.60
2022-11-19T20:01:38.590Z,4.45
2022-11-19T20:04:06.874Z,4.22
2022-11-19T20:06:34.021Z,3.13
2022-11-19T20:09:03.188Z,3.35
2022-11-19T20:11:33.514Z,3.17
2022-11-19T20:13:59.973Z,3.70
2022-11-19T20:16:27.573Z,4.60
2022-11-19T20:18:55.251Z,4.85
2022-11-19T20:21:28.265Z,5.60
2022-11-19T20:23:55.573Z,2.67
2022-11-19T20:26:23.667Z,4.65
2022-11-19T20:28:57.269Z,4.75
2022-11-19T20:31:24.165Z,3.58
2022-11-19T20:33:52.045Z,3.75
2022-11-19T20:36:18.829Z,4.35
2022-11-19T20:38:48.367Z,5.18
2022-11-19T20:41:34.255Z,6.63
2022-11-19T20:44:20.214Z,4.35
2022-11-19T20:46:57.612Z,3.38
2022-11-19T20:49:25.509Z,3.33
2022-11-19T20:51:52.870Z,3.25
2022-11-19T20:54:20.797Z,3.70
2022-11-19T20:56:48.830Z,3.42
2022-11-19T20:59:15.522Z,3.95
2022-11-19T21:01:42.418Z,3.60
2022-11-19T21:04:10.280Z,2.78
2022-11-19T21:06:36.778Z,3.50
2022-11-19T21:09:04.092Z,5.10
2022-11-19T21:11:30.590Z,5.75
2022-11-19T21:13:57.193Z,3.45
2022-11-19T21:16:24.610Z,3.85
2022-11-19T21:18:52.278Z,4.60
2022-11-19T21:21:19.877Z,3.13
2022-11-19T21:23:46.646Z,3.28
2022-11-19T21:26:16.421Z,4.25
2022-11-19T21:28:45.192Z,3.97
2022-11-19T21:31:11.688Z,4.93
2022-11-19T21:33:38.165Z,3.53
2022-11-19T21:36:05.131Z,4.20
2022-11-19T21:38:31.650Z,2.95
2022-11-19T21:40:58.128Z,3.75
2022-11-19T21:43:25.622Z,4.22
2022-11-19T21:45:54.339Z,3.75
2022-11-19T21:48:21.537Z,3.63
2022-11-19T21:50:48.482Z,4.45
2022-11-19T21:53:15.527Z,5.03
2022-11-19T21:55:43.407Z,4.32
2022-11-19T21:58:10.641Z,4.60
2022-11-19T22:00:40.298Z,5.45
2022-11-19T22:03:07.040Z,4.35
2022-11-19T22:05:33.495Z,4.32
2022-11-19T22:08:00.244Z,4.70
2022-11-19T22:10:27.070Z,5.15
2022-11-19T22:12:53.713Z,4.68
2022-11-19T22:15:20.325Z,5.22
2022-11-19T22:17:46.999Z,4.05
2022-11-19T22:20:13.913Z,4.10
2022-11-19T22:22:45.138Z,3.90
2022-11-19T22:25:12.369Z,3.60
2022-11-19T22:27:39.290Z,4.38
2022-11-19T22:30:06.489Z,4.93
2022-11-19T22:32:33.127Z,3.70
2022-11-19T22:34:59.616Z,3.40
2022-11-19T22:37:26.068Z,3.90
2022-11-19T22:39:52.621Z,3.83
2022-11-19T22:42:19.097Z,4.25
2022-11-19T22:44:45.709Z,3.53
2022-11-19T22:47:12.176Z,3.10
2022-11-19T22:49:38.651Z,3.17
2022-11-19T22:52:05.104Z,4.45
2022-11-19T22:54:31.530Z,3.95
2022-11-19T22:56:58.118Z,3.45
2022-11-19T22:59:24.609Z,3.72
2022-11-19T23:01:51.252Z,4.22
2022-11-19T23:04:17.853Z,4.00
2022-11-19T23:06:44.312Z,4.57
2022-11-19T23:09:10.911Z,4.00
2022-11-19T23:11:56.077Z,3.70
2022-11-19T23:14:22.732Z,4.03
2022-11-19T23:16:49.245Z,4.30
2022-11-19T23:19:19.222Z,4.15
2022-11-19T23:21:46.414Z,3.78
2022-11-19T23:24:13.248Z,3.63
2022-11-19T23:26:39.914Z,3.45
2022-11-19T23:29:06.936Z,3.05
2022-11-19T23:31:42.443Z,3.90
2022-11-19T23:34:09.015Z,3.42
2022-11-19T23:36:36.634Z,3.40
2022-11-19T23:39:05.162Z,3.95
2022-11-19T23:41:32.917Z,3.97
2022-11-19T23:43:59.357Z,4.90
2022-11-19T23:46:27.534Z,3.95
2022-11-19T23:48:54.934Z,6.93
2022-11-19T23:51:23.160Z,3.67
2022-11-19T23:53:49.700Z,3.45
2022-11-19T23:56:16.965Z,3.28
2022-11-19T23:58:43.754Z,4.65
